sensor_id;sensor_type;location;lat;lon;timestamp;P1;durP1;ratioP1;P2;durP2;ratioP2
75866;SDS011;64513;56.258;43.980;2023-01-24T00:01:17;21.68;;;8.10;;
75866;SDS011;64513;56.258;43.980;2023-01-24T00:03:41;23.57;;;8.95;;
75866;SDS011;64513;56.258;43.980;2023-01-24T00:06:06;23.30;;;8.40;;
75866;SDS011;64513;56.258;43.980;2023-01-24T00:08:30;24.57;;;9.15;;
75866;SDS011;64513;56.258;43.980;2023-01-24T00:13:38;25.27;;;8.95;;
75866;SDS011;64513;56.258;43.980;2023-01-24T00:18:47;25.55;;;9.05;;
75866;SDS011;64513;56.258;43.980;2023-01-24T00:21:14;23.10;;;9.00;;
75866;SDS011;64513;56.258;43.980;2023-01-24T00:26:07;23.77;;;8.80;;
75866;SDS011;64513;56.258;43.980;2023-01-24T00:28:32;23.77;;;8.98;;
75866;SDS011;64513;56.258;43.980;2023-01-24T00:30:57;22.25;;;8.90;;
75866;SDS011;64513;56.258;43.980;2023-01-24T00:33:21;24.82;;;8.25;;
75866;SDS011;64513;56.258;43.980;2023-01-24T00:35:45;27.55;;;9.28;;
75866;SDS011;64513;56.258;43.980;2023-01-24T00:38:09;27.35;;;8.85;;
75866;SDS011;64513;56.258;43.980;2023-01-24T00:40:33;24.95;;;9.00;;
75866;SDS011;64513;56.258;43.980;2023-01-24T00:42:57;21.00;;;8.00;;
75866;SDS011;64513;56.258;43.980;2023-01-24T00:45:22;24.50;;;8.88;;
75866;SDS011;64513;56.258;43.980;2023-01-24T00:47:46;20.77;;;8.53;;
75866;SDS011;64513;56.258;43.980;2023-01-24T00:50:10;21.62;;;8.28;;
75866;SDS011;64513;56.258;43.980;2023-01-24T00:52:34;22.00;;;8.45;;
75866;SDS011;64513;56.258;43.980;2023-01-24T00:54:58;21.50;;;8.40;;
75866;SDS011;64513;56.258;43.980;2023-01-24T00:57:24;24.30;;;8.05;;
75866;SDS011;64513;56.258;43.980;2023-01-24T00:59:48;23.32;;;8.58;;
75866;SDS011;64513;56.258;43.980;2023-01-24T01:02:12;25.17;;;8.90;;
75866;SDS011;64513;56.258;43.980;2023-01-24T01:04:36;25.02;;;8.70;;
75866;SDS011;64513;56.258;43.980;2023-01-24T01:07:01;19.90;;;7.70;;
75866;SDS011;64513;56.258;43.980;2023-01-24T01:09:25;21.27;;;8.75;;
75866;SDS011;64513;56.258;43.980;2023-01-24T01:11:49;19.50;;;7.62;;
75866;SDS011;64513;56.258;43.980;2023-01-24T01:14:13;24.43;;;8.45;;
75866;SDS011;64513;56.258;43.980;2023-01-24T01:16:37;25.72;;;8.28;;
75866;SDS011;64513;56.258;43.980;2023-01-24T01:19:01;22.55;;;8.40;;
75866;SDS011;64513;56.258;43.980;2023-01-24T01:21:25;21.85;;;8.13;;
75866;SDS011;64513;56.258;43.980;2023-01-24T01:23:49;22.27;;;8.25;;
75866;SDS011;64513;56.258;43.980;2023-01-24T01:26:15;21.70;;;8.10;;
75866;SDS011;64513;56.258;43.980;2023-01-24T01:28:41;17.70;;;7.67;;
75866;SDS011;64513;56.258;43.980;2023-01-24T01:31:06;21.55;;;7.90;;
75866;SDS011;64513;56.258;43.980;2023-01-24T01:33:30;22.25;;;7.83;;
75866;SDS011;64513;56.258;43.980;2023-01-24T01:35:54;20.50;;;8.55;;
75866;SDS011;64513;56.258;43.980;2023-01-24T01:38:19;22.22;;;8.30;;
75866;SDS011;64513;56.258;43.980;2023-01-24T01:40:45;20.77;;;7.65;;
75866;SDS011;64513;56.258;43.980;2023-01-24T01:43:44;23.50;;;7.90;;
75866;SDS011;64513;56.258;43.980;2023-01-24T01:49:00;22.73;;;7.58;;
75866;SDS011;64513;56.258;43.980;2023-01-24T01:51:26;18.25;;;7.70;;
75866;SDS011;64513;56.258;43.980;2023-01-24T01:54:13;21.40;;;7.65;;
75866;SDS011;64513;56.258;43.980;2023-01-24T01:56:58;20.75;;;8.10;;
75866;SDS011;64513;56.258;43.980;2023-01-24T01:59:25;20.35;;;7.33;;
75866;SDS011;64513;56.258;43.980;2023-01-24T02:02:09;23.10;;;8.73;;
75866;SDS011;64513;56.258;43.980;2023-01-24T02:04:35;20.37;;;7.92;;
75866;SDS011;64513;56.258;43.980;2023-01-24T02:10:05;19.20;;;7.00;;
75866;SDS011;64513;56.258;43.980;2023-01-24T02:12:32;19.10;;;6.72;;
75866;SDS011;64513;56.258;43.980;2023-01-24T02:15:01;20.15;;;7.10;;
75866;SDS011;64513;56.258;43.980;2023-01-24T02:17:45;24.27;;;7.87;;
75866;SDS011;64513;56.258;43.980;2023-01-24T02:26:20;20.15;;;7.47;;
75866;SDS011;64513;56.258;43.980;2023-01-24T02:28:49;18.00;;;7.03;;
75866;SDS011;64513;56.258;43.980;2023-01-24T02:34:37;19.30;;;7.05;;
75866;SDS011;64513;56.258;43.980;2023-01-24T02:39:31;18.37;;;6.58;;
75866;SDS011;64513;56.258;43.980;2023-01-24T02:42:15;17.25;;;6.03;;
75866;SDS011;64513;56.258;43.980;2023-01-24T02:44:45;18.00;;;6.90;;
75866;SDS011;64513;56.258;43.980;2023-01-24T02:47:29;17.17;;;6.40;;
75866;SDS011;64513;56.258;43.980;2023-01-24T02:49:55;15.50;;;5.90;;
75866;SDS011;64513;56.258;43.980;2023-01-24T02:52:20;15.68;;;6.30;;
75866;SDS011;64513;56.258;43.980;2023-01-24T02:55:04;15.63;;;5.87;;
75866;SDS011;64513;56.258;43.980;2023-01-24T02:57:29;17.52;;;6.55;;
75866;SDS011;64513;56.258;43.980;2023-01-24T03:00:13;16.02;;;5.85;;
75866;SDS011;64513;56.258;43.980;2023-01-24T03:02:37;20.00;;;5.95;;
75866;SDS011;64513;56.258;43.980;2023-01-24T03:05:02;18.25;;;6.45;;
75866;SDS011;64513;56.258;43.980;2023-01-24T03:07:26;16.48;;;6.08;;
75866;SDS011;64513;56.258;43.980;2023-01-24T03:09:52;15.32;;;5.80;;
75866;SDS011;64513;56.258;43.980;2023-01-24T03:12:16;16.27;;;5.92;;
75866;SDS011;64513;56.258;43.980;2023-01-24T03:15:00;21.40;;;6.60;;
75866;SDS011;64513;56.258;43.980;2023-01-24T03:17:44;16.42;;;6.05;;
75866;SDS011;64513;56.258;43.980;2023-01-24T03:20:29;17.05;;;5.83;;
75866;SDS011;64513;56.258;43.980;2023-01-24T03:23:13;18.32;;;5.95;;
75866;SDS011;64513;56.258;43.980;2023-01-24T03:25:57;14.15;;;5.15;;
75866;SDS011;64513;56.258;43.980;2023-01-24T03:28:41;15.90;;;6.40;;
75866;SDS011;64513;56.258;43.980;2023-01-24T03:31:25;18.90;;;6.30;;
75866;SDS011;64513;56.258;43.980;2023-01-24T03:34:09;15.08;;;5.28;;
75866;SDS011;64513;56.258;43.980;2023-01-24T03:36:53;16.57;;;5.17;;
75866;SDS011;64513;56.258;43.980;2023-01-24T03:39:17;15.30;;;5.37;;
75866;SDS011;64513;56.258;43.980;2023-01-24T03:42:01;15.95;;;5.80;;
75866;SDS011;64513;56.258;43.980;2023-01-24T03:44:26;14.45;;;5.53;;
75866;SDS011;64513;56.258;43.980;2023-01-24T03:46:50;15.98;;;5.80;;
75866;SDS011;64513;56.258;43.980;2023-01-24T03:49:14;16.10;;;5.25;;
75866;SDS011;64513;56.258;43.980;2023-01-24T03:51:38;14.58;;;4.95;;
75866;SDS011;64513;56.258;43.980;2023-01-24T03:54:22;14.80;;;5.30;;
75866;SDS011;64513;56.258;43.980;2023-01-24T03:56:46;15.63;;;5.37;;
75866;SDS011;64513;56.258;43.980;2023-01-24T03:59:10;14.85;;;5.25;;
75866;SDS011;64513;56.258;43.980;2023-01-24T04:01:35;14.03;;;5.45;;
75866;SDS011;64513;56.258;43.980;2023-01-24T04:03:59;14.93;;;5.12;;
75866;SDS011;64513;56.258;43.980;2023-01-24T04:06:23;14.70;;;5.70;;
75866;SDS011;64513;56.258;43.980;2023-01-24T04:08:48;15.40;;;5.40;;
75866;SDS011;64513;56.258;43.980;2023-01-24T04:11:12;15.35;;;5.60;;
75866;SDS011;64513;56.258;43.980;2023-01-24T04:13:36;17.30;;;5.45;;
75866;SDS011;64513;56.258;43.980;2023-01-24T04:16:00;18.15;;;5.60;;
75866;SDS011;64513;56.258;43.980;2023-01-24T04:18:24;18.40;;;5.30;;
75866;SDS011;64513;56.258;43.980;2023-01-24T04:20:49;14.85;;;5.10;;
75866;SDS011;64513;56.258;43.980;2023-01-24T04:23:13;15.63;;;5.85;;
75866;SDS011;64513;56.258;43.980;2023-01-24T04:25:37;15.63;;;5.50;;
75866;SDS011;64513;56.258;43.980;2023-01-24T04:28:01;16.20;;;5.62;;
75866;SDS011;64513;56.258;43.980;2023-01-24T04:30:26;15.85;;;5.15;;
75866;SDS011;64513;56.258;43.980;2023-01-24T04:32:50;18.77;;;5.50;;
75866;SDS011;64513;56.258;43.980;2023-01-24T04:35:15;12.58;;;5.08;;
75866;SDS011;64513;56.258;43.980;2023-01-24T04:37:41;15.83;;;5.58;;
75866;SDS011;64513;56.258;43.980;2023-01-24T04:40:06;14.93;;;5.58;;
75866;SDS011;64513;56.258;43.980;2023-01-24T04:42:32;15.25;;;5.80;;
75866;SDS011;64513;56.258;43.980;2023-01-24T04:44:56;15.15;;;5.03;;
75866;SDS011;64513;56.258;43.980;2023-01-24T04:47:20;13.93;;;5.22;;
75866;SDS011;64513;56.258;43.980;2023-01-24T04:49:45;15.58;;;5.37;;
75866;SDS011;64513;56.258;43.980;2023-01-24T04:54:53;13.80;;;5.20;;
75866;SDS011;64513;56.258;43.980;2023-01-24T04:57:18;15.25;;;5.58;;
75866;SDS011;64513;56.258;43.980;2023-01-24T04:59:42;16.57;;;5.40;;
75866;SDS011;64513;56.258;43.980;2023-01-24T05:02:06;15.85;;;5.95;;
75866;SDS011;64513;56.258;43.980;2023-01-24T05:04:30;18.37;;;5.70;;
75866;SDS011;64513;56.258;43.980;2023-01-24T05:06:55;14.30;;;5.25;;
75866;SDS011;64513;56.258;43.980;2023-01-24T05:09:19;14.30;;;5.62;;
75866;SDS011;64513;56.258;43.980;2023-01-24T05:11:43;17.07;;;5.85;;
75866;SDS011;64513;56.258;43.980;2023-01-24T05:14:08;16.32;;;5.92;;
75866;SDS011;64513;56.258;43.980;2023-01-24T05:16:33;19.85;;;6.22;;
75866;SDS011;64513;56.258;43.980;2023-01-24T05:18:57;13.60;;;5.20;;
75866;SDS011;64513;56.258;43.980;2023-01-24T05:21:21;15.72;;;5.60;;
75866;SDS011;64513;56.258;43.980;2023-01-24T05:26:30;16.40;;;5.83;;
75866;SDS011;64513;56.258;43.980;2023-01-24T05:28:54;14.83;;;5.15;;
75866;SDS011;64513;56.258;43.980;2023-01-24T05:31:18;15.75;;;5.60;;
75866;SDS011;64513;56.258;43.980;2023-01-24T05:33:43;18.70;;;6.25;;
75866;SDS011;64513;56.258;43.980;2023-01-24T05:36:10;17.15;;;5.92;;
75866;SDS011;64513;56.258;43.980;2023-01-24T05:38:35;17.87;;;5.72;;
75866;SDS011;64513;56.258;43.980;2023-01-24T05:41:01;16.70;;;5.40;;
75866;SDS011;64513;56.258;43.980;2023-01-24T05:43:27;16.75;;;5.60;;
75866;SDS011;64513;56.258;43.980;2023-01-24T05:45:56;16.37;;;5.70;;
75866;SDS011;64513;56.258;43.980;2023-01-24T05:48:37;15.85;;;5.87;;
75866;SDS011;64513;56.258;43.980;2023-01-24T05:51:03;14.45;;;5.55;;
75866;SDS011;64513;56.258;43.980;2023-01-24T05:53:47;18.62;;;5.90;;
75866;SDS011;64513;56.258;43.980;2023-01-24T05:58:55;19.80;;;6.00;;
75866;SDS011;64513;56.258;43.980;2023-01-24T06:01:23;13.65;;;5.37;;
75866;SDS011;64513;56.258;43.980;2023-01-24T06:03:48;16.95;;;5.70;;
75866;SDS011;64513;56.258;43.980;2023-01-24T06:06:15;17.90;;;5.90;;
75866;SDS011;64513;56.258;43.980;2023-01-24T06:08:40;17.15;;;5.90;;
75866;SDS011;64513;56.258;43.980;2023-01-24T06:11:39;16.57;;;5.53;;
75866;SDS011;64513;56.258;43.980;2023-01-24T06:13:33;17.20;;;5.65;;
75866;SDS011;64513;56.258;43.980;2023-01-24T06:18:42;17.48;;;5.45;;
75866;SDS011;64513;56.258;43.980;2023-01-24T06:21:08;15.55;;;5.10;;
75866;SDS011;64513;56.258;43.980;2023-01-24T06:23:53;15.80;;;5.70;;
75866;SDS011;64513;56.258;43.980;2023-01-24T06:26:17;19.73;;;5.78;;
75866;SDS011;64513;56.258;43.980;2023-01-24T06:28:42;15.83;;;5.00;;
75866;SDS011;64513;56.258;43.980;2023-01-24T06:39:45;17.80;;;5.50;;
75866;SDS011;64513;56.258;43.980;2023-01-24T06:42:10;15.85;;;5.55;;
75866;SDS011;64513;56.258;43.980;2023-01-24T06:44:35;18.25;;;6.03;;
75866;SDS011;64513;56.258;43.980;2023-01-24T06:46:59;21.25;;;6.70;;
75866;SDS011;64513;56.258;43.980;2023-01-24T06:49:23;19.37;;;6.62;;
75866;SDS011;64513;56.258;43.980;2023-01-24T06:51:49;16.52;;;6.47;;
75866;SDS011;64513;56.258;43.980;2023-01-24T06:54:15;18.02;;;6.50;;
75866;SDS011;64513;56.258;43.980;2023-01-24T06:56:39;18.12;;;6.75;;
75866;SDS011;64513;56.258;43.980;2023-01-24T06:59:03;19.10;;;5.90;;
75866;SDS011;64513;56.258;43.980;2023-01-24T07:01:27;19.32;;;6.70;;
75866;SDS011;64513;56.258;43.980;2023-01-24T07:03:51;16.57;;;6.25;;
75866;SDS011;64513;56.258;43.980;2023-01-24T07:06:15;17.07;;;6.42;;
75866;SDS011;64513;56.258;43.980;2023-01-24T07:08:41;23.12;;;6.60;;
75866;SDS011;64513;56.258;43.980;2023-01-24T07:11:05;17.20;;;6.60;;
75866;SDS011;64513;56.258;43.980;2023-01-24T07:13:29;19.77;;;6.55;;
75866;SDS011;64513;56.258;43.980;2023-01-24T07:15:53;20.48;;;6.75;;
75866;SDS011;64513;56.258;43.980;2023-01-24T07:18:18;16.35;;;6.58;;
75866;SDS011;64513;56.258;43.980;2023-01-24T07:20:43;17.30;;;6.80;;
75866;SDS011;64513;56.258;43.980;2023-01-24T07:25:55;16.62;;;6.28;;
75866;SDS011;64513;56.258;43.980;2023-01-24T07:28:19;17.45;;;6.12;;
75866;SDS011;64513;56.258;43.980;2023-01-24T07:30:43;18.20;;;6.87;;
75866;SDS011;64513;56.258;43.980;2023-01-24T07:33:07;18.10;;;6.58;;
75866;SDS011;64513;56.258;43.980;2023-01-24T07:35:32;14.90;;;6.00;;
75866;SDS011;64513;56.258;43.980;2023-01-24T07:37:56;19.40;;;6.53;;
75866;SDS011;64513;56.258;43.980;2023-01-24T07:40:21;18.48;;;6.67;;
75866;SDS011;64513;56.258;43.980;2023-01-24T07:42:45;16.82;;;6.53;;
75866;SDS011;64513;56.258;43.980;2023-01-24T07:45:09;18.23;;;6.95;;
75866;SDS011;64513;56.258;43.980;2023-01-24T07:47:33;20.40;;;6.70;;
75866;SDS011;64513;56.258;43.980;2023-01-24T07:49:58;15.32;;;6.17;;
75866;SDS011;64513;56.258;43.980;2023-01-24T07:52:22;18.02;;;6.90;;
75866;SDS011;64513;56.258;43.980;2023-01-24T07:54:46;15.43;;;6.78;;
75866;SDS011;64513;56.258;43.980;2023-01-24T07:57:10;21.45;;;7.10;;
75866;SDS011;64513;56.258;43.980;2023-01-24T07:59:36;18.90;;;6.70;;
75866;SDS011;64513;56.258;43.980;2023-01-24T08:02:00;16.17;;;6.67;;
75866;SDS011;64513;56.258;43.980;2023-01-24T08:04:24;18.27;;;6.97;;
75866;SDS011;64513;56.258;43.980;2023-01-24T08:06:48;16.62;;;6.87;;
75866;SDS011;64513;56.258;43.980;2023-01-24T08:09:32;18.60;;;6.75;;
75866;SDS011;64513;56.258;43.980;2023-01-24T08:11:56;17.50;;;6.30;;
75866;SDS011;64513;56.258;43.980;2023-01-24T08:14:20;18.37;;;6.78;;
75866;SDS011;64513;56.258;43.980;2023-01-24T08:16:45;16.30;;;6.62;;
75866;SDS011;64513;56.258;43.980;2023-01-24T08:19:09;19.82;;;6.55;;
75866;SDS011;64513;56.258;43.980;2023-01-24T08:21:33;19.23;;;6.80;;
75866;SDS011;64513;56.258;43.980;2023-01-24T08:23:58;19.90;;;6.90;;
75866;SDS011;64513;56.258;43.980;2023-01-24T08:26:22;17.98;;;7.28;;
75866;SDS011;64513;56.258;43.980;2023-01-24T08:28:46;17.32;;;6.95;;
75866;SDS011;64513;56.258;43.980;2023-01-24T08:31:10;18.37;;;7.00;;
75866;SDS011;64513;56.258;43.980;2023-01-24T08:33:34;20.52;;;7.37;;
75866;SDS011;64513;56.258;43.980;2023-01-24T08:35:59;16.60;;;6.40;;
75866;SDS011;64513;56.258;43.980;2023-01-24T08:38:23;20.08;;;7.08;;
75866;SDS011;64513;56.258;43.980;2023-01-24T08:40:47;19.10;;;6.67;;
75866;SDS011;64513;56.258;43.980;2023-01-24T08:43:11;20.45;;;7.28;;
75866;SDS011;64513;56.258;43.980;2023-01-24T08:45:35;20.25;;;7.03;;
75866;SDS011;64513;56.258;43.980;2023-01-24T08:48:00;19.10;;;7.05;;
75866;SDS011;64513;56.258;43.980;2023-01-24T08:50:25;19.12;;;7.33;;
75866;SDS011;64513;56.258;43.980;2023-01-24T08:52:53;18.27;;;7.08;;
75866;SDS011;64513;56.258;43.980;2023-01-24T08:55:35;18.98;;;6.83;;
75866;SDS011;64513;56.258;43.980;2023-01-24T08:58:00;19.40;;;7.28;;
75866;SDS011;64513;56.258;43.980;2023-01-24T09:00:26;17.90;;;6.60;;
75866;SDS011;64513;56.258;43.980;2023-01-24T09:02:50;18.40;;;7.53;;
75866;SDS011;64513;56.258;43.980;2023-01-24T09:05:14;19.75;;;6.92;;
75866;SDS011;64513;56.258;43.980;2023-01-24T09:07:38;19.55;;;7.65;;
75866;SDS011;64513;56.258;43.980;2023-01-24T09:10:03;18.82;;;7.35;;
75866;SDS011;64513;56.258;43.980;2023-01-24T09:12:27;21.45;;;7.25;;
75866;SDS011;64513;56.258;43.980;2023-01-24T09:14:53;15.40;;;5.75;;
75866;SDS011;64513;56.258;43.980;2023-01-24T09:17:18;22.05;;;6.45;;
75866;SDS011;64513;56.258;43.980;2023-01-24T09:19:42;18.10;;;6.15;;
75866;SDS011;64513;56.258;43.980;2023-01-24T09:22:07;18.07;;;6.85;;
75866;SDS011;64513;56.258;43.980;2023-01-24T09:24:31;20.60;;;7.35;;
75866;SDS011;64513;56.258;43.980;2023-01-24T09:26:55;20.08;;;7.37;;
75866;SDS011;64513;56.258;43.980;2023-01-24T09:29:20;18.10;;;6.92;;
75866;SDS011;64513;56.258;43.980;2023-01-24T09:31:44;21.42;;;7.08;;
75866;SDS011;64513;56.258;43.980;2023-01-24T09:34:09;20.70;;;7.90;;
75866;SDS011;64513;56.258;43.980;2023-01-24T09:36:33;20.30;;;7.60;;
75866;SDS011;64513;56.258;43.980;2023-01-24T09:38:57;22.62;;;7.78;;
75866;SDS011;64513;56.258;43.980;2023-01-24T09:53:01;22.40;;;8.20;;
75866;SDS011;64513;56.258;43.980;2023-01-24T10:03:41;21.90;;;8.60;;
75866;SDS011;64513;56.258;43.980;2023-01-24T10:06:08;21.95;;;8.80;;
75866;SDS011;64513;56.258;43.980;2023-01-24T10:08:34;22.65;;;8.83;;
75866;SDS011;64513;56.258;43.980;2023-01-24T10:14:27;21.62;;;7.75;;
75866;SDS011;64513;56.258;43.980;2023-01-24T10:29:39;25.10;;;7.62;;
75866;SDS011;64513;56.258;43.980;2023-01-24T10:34:40;27.25;;;8.28;;
75866;SDS011;64513;56.258;43.980;2023-01-24T10:37:25;21.45;;;8.48;;
75866;SDS011;64513;56.258;43.980;2023-01-24T10:39:53;20.82;;;7.60;;
75866;SDS011;64513;56.258;43.980;2023-01-24T10:42:18;20.97;;;7.80;;
75866;SDS011;64513;56.258;43.980;2023-01-24T10:51:13;22.25;;;8.90;;
75866;SDS011;64513;56.258;43.980;2023-01-24T10:53:39;23.87;;;8.60;;
75866;SDS011;64513;56.258;43.980;2023-01-24T10:56:03;20.15;;;8.08;;
75866;SDS011;64513;56.258;43.980;2023-01-24T11:01:35;23.52;;;7.67;;
75866;SDS011;64513;56.258;43.980;2023-01-24T11:04:12;26.90;;;8.90;;
75866;SDS011;64513;56.258;43.980;2023-01-24T11:06:47;24.45;;;8.80;;
75866;SDS011;64513;56.258;43.980;2023-01-24T11:11:57;24.50;;;9.00;;
75866;SDS011;64513;56.258;43.980;2023-01-24T11:14:23;22.85;;;8.83;;
75866;SDS011;64513;56.258;43.980;2023-01-24T11:16:51;26.25;;;9.90;;
75866;SDS011;64513;56.258;43.980;2023-01-24T11:22:34;24.82;;;9.05;;
75866;SDS011;64513;56.258;43.980;2023-01-24T11:25:13;27.20;;;9.20;;
75866;SDS011;64513;56.258;43.980;2023-01-24T11:27:54;24.60;;;9.30;;
75866;SDS011;64513;56.258;43.980;2023-01-24T11:30:20;28.02;;;9.50;;
75866;SDS011;64513;56.258;43.980;2023-01-24T11:41:05;29.80;;;9.13;;
75866;SDS011;64513;56.258;43.980;2023-01-24T11:50:01;26.50;;;8.88;;
75866;SDS011;64513;56.258;43.980;2023-01-24T12:20:57;30.70;;;9.90;;
75866;SDS011;64513;56.258;43.980;2023-01-24T12:26:11;27.30;;;9.75;;
75866;SDS011;64513;56.258;43.980;2023-01-24T12:34:45;27.80;;;9.20;;
75866;SDS011;64513;56.258;43.980;2023-01-24T12:37:31;24.98;;;8.53;;
75866;SDS011;64513;56.258;43.980;2023-01-24T12:49:23;27.50;;;9.20;;
75866;SDS011;64513;56.258;43.980;2023-01-24T13:03:55;26.60;;;9.10;;
75866;SDS011;64513;56.258;43.980;2023-01-24T13:06:22;27.13;;;9.33;;
75866;SDS011;64513;56.258;43.980;2023-01-24T13:11:52;21.57;;;8.68;;
75866;SDS011;64513;56.258;43.980;2023-01-24T13:22:24;24.75;;;8.95;;
75866;SDS011;64513;56.258;43.980;2023-01-24T13:25:08;23.65;;;8.63;;
75866;SDS011;64513;56.258;43.980;2023-01-24T13:30:38;21.80;;;8.00;;
75866;SDS011;64513;56.258;43.980;2023-01-24T13:33:02;22.00;;;8.55;;
75866;SDS011;64513;56.258;43.980;2023-01-24T13:35:28;22.62;;;8.38;;
75866;SDS011;64513;56.258;43.980;2023-01-24T13:37:55;25.57;;;8.08;;
75866;SDS011;64513;56.258;43.980;2023-01-24T13:40:22;21.87;;;8.43;;
75866;SDS011;64513;56.258;43.980;2023-01-24T13:45:52;20.25;;;7.87;;
75866;SDS011;64513;56.258;43.980;2023-01-24T13:51:22;20.25;;;7.55;;
75866;SDS011;64513;56.258;43.980;2023-01-24T13:59:59;21.68;;;7.17;;
75866;SDS011;64513;56.258;43.980;2023-01-24T14:02:44;20.68;;;7.40;;
75866;SDS011;64513;56.258;43.980;2023-01-24T14:14:35;19.75;;;6.58;;
75866;SDS011;64513;56.258;43.980;2023-01-24T14:22:03;20.10;;;7.00;;
75866;SDS011;64513;56.258;43.980;2023-01-24T14:30:57;22.20;;;6.62;;
75866;SDS011;64513;56.258;43.980;2023-01-24T14:34:16;18.75;;;7.15;;
75866;SDS011;64513;56.258;43.980;2023-01-24T14:47:29;21.77;;;7.28;;
75866;SDS011;64513;56.258;43.980;2023-01-24T14:49:54;24.00;;;7.58;;
75866;SDS011;64513;56.258;43.980;2023-01-24T14:54:49;21.10;;;6.87;;
75866;SDS011;64513;56.258;43.980;2023-01-24T14:57:35;20.90;;;7.28;;
75866;SDS011;64513;56.258;43.980;2023-01-24T15:05:30;19.65;;;7.45;;
75866;SDS011;64513;56.258;43.980;2023-01-24T15:07:58;19.65;;;7.10;;
75866;SDS011;64513;56.258;43.980;2023-01-24T15:10:24;22.70;;;6.75;;
75866;SDS011;64513;56.258;43.980;2023-01-24T15:12:51;22.93;;;6.85;;
75866;SDS011;64513;56.258;43.980;2023-01-24T15:15:17;20.65;;;6.83;;
75866;SDS011;64513;56.258;43.980;2023-01-24T15:17:43;20.90;;;7.10;;
75866;SDS011;64513;56.258;43.980;2023-01-24T15:20:09;23.73;;;7.70;;
75866;SDS011;64513;56.258;43.980;2023-01-24T15:22:57;20.97;;;7.15;;
75866;SDS011;64513;56.258;43.980;2023-01-24T15:30:54;19.50;;;6.70;;
75866;SDS011;64513;56.258;43.980;2023-01-24T15:33:19;22.70;;;7.00;;
75866;SDS011;64513;56.258;43.980;2023-01-24T15:35:44;19.95;;;6.30;;
75866;SDS011;64513;56.258;43.980;2023-01-24T15:56:03;18.98;;;7.00;;
75866;SDS011;64513;56.258;43.980;2023-01-24T15:58:29;21.70;;;7.00;;
75866;SDS011;64513;56.258;43.980;2023-01-24T16:00:57;18.32;;;6.15;;
75866;SDS011;64513;56.258;43.980;2023-01-24T16:03:23;18.48;;;6.72;;
75866;SDS011;64513;56.258;43.980;2023-01-24T16:05:47;19.40;;;7.12;;
75866;SDS011;64513;56.258;43.980;2023-01-24T16:08:11;17.27;;;6.53;;
75866;SDS011;64513;56.258;43.980;2023-01-24T16:10:36;18.00;;;7.00;;
75866;SDS011;64513;56.258;43.980;2023-01-24T16:13:00;17.87;;;7.35;;
75866;SDS011;64513;56.258;43.980;2023-01-24T16:15:25;22.70;;;7.58;;
75866;SDS011;64513;56.258;43.980;2023-01-24T16:17:49;24.72;;;5.87;;
75866;SDS011;64513;56.258;43.980;2023-01-24T16:22:58;22.40;;;7.40;;
75866;SDS011;64513;56.258;43.980;2023-01-24T16:25:22;21.68;;;6.17;;
75866;SDS011;64513;56.258;43.980;2023-01-24T16:27:47;22.67;;;6.58;;
75866;SDS011;64513;56.258;43.980;2023-01-24T16:32:40;21.17;;;7.55;;
75866;SDS011;64513;56.258;43.980;2023-01-24T16:35:04;20.60;;;7.50;;
75866;SDS011;64513;56.258;43.980;2023-01-24T16:37:29;21.35;;;7.45;;
75866;SDS011;64513;56.258;43.980;2023-01-24T16:39:55;22.65;;;7.75;;
75866;SDS011;64513;56.258;43.980;2023-01-24T16:42:19;21.60;;;7.47;;
75866;SDS011;64513;56.258;43.980;2023-01-24T16:44:43;21.55;;;7.85;;
75866;SDS011;64513;56.258;43.980;2023-01-24T16:47:10;22.90;;;7.10;;
75866;SDS011;64513;56.258;43.980;2023-01-24T16:49:34;24.12;;;8.03;;
75866;SDS011;64513;56.258;43.980;2023-01-24T16:51:59;22.30;;;7.55;;
75866;SDS011;64513;56.258;43.980;2023-01-24T16:54:23;21.35;;;8.25;;
75866;SDS011;64513;56.258;43.980;2023-01-24T16:56:48;21.65;;;7.75;;
75866;SDS011;64513;56.258;43.980;2023-01-24T16:59:12;21.60;;;7.50;;
75866;SDS011;64513;56.258;43.980;2023-01-24T17:01:36;22.42;;;8.08;;
75866;SDS011;64513;56.258;43.980;2023-01-24T17:04:00;21.15;;;7.87;;
75866;SDS011;64513;56.258;43.980;2023-01-24T17:06:25;22.37;;;7.72;;
75866;SDS011;64513;56.258;43.980;2023-01-24T17:08:49;24.23;;;8.08;;
75866;SDS011;64513;56.258;43.980;2023-01-24T17:11:14;23.60;;;7.90;;
75866;SDS011;64513;56.258;43.980;2023-01-24T17:13:40;26.95;;;8.80;;
75866;SDS011;64513;56.258;43.980;2023-01-24T17:16:04;22.98;;;7.60;;
75866;SDS011;64513;56.258;43.980;2023-01-24T17:18:31;24.50;;;8.55;;
75866;SDS011;64513;56.258;43.980;2023-01-24T17:20:58;24.02;;;8.60;;
75866;SDS011;64513;56.258;43.980;2023-01-24T17:23:41;23.60;;;8.30;;
75866;SDS011;64513;56.258;43.980;2023-01-24T17:26:06;22.73;;;8.15;;
75866;SDS011;64513;56.258;43.980;2023-01-24T17:28:32;22.55;;;8.00;;
75866;SDS011;64513;56.258;43.980;2023-01-24T17:30:58;23.38;;;8.38;;
75866;SDS011;64513;56.258;43.980;2023-01-24T17:33:22;21.15;;;7.47;;
75866;SDS011;64513;56.258;43.980;2023-01-24T17:35:47;23.20;;;7.90;;
75866;SDS011;64513;56.258;43.980;2023-01-24T17:38:11;21.73;;;7.62;;
75866;SDS011;64513;56.258;43.980;2023-01-24T17:40:36;20.68;;;7.20;;
75866;SDS011;64513;56.258;43.980;2023-01-24T17:43:00;22.37;;;7.62;;
75866;SDS011;64513;56.258;43.980;2023-01-24T17:45:24;23.73;;;8.48;;
75866;SDS011;64513;56.258;43.980;2023-01-24T17:47:48;22.50;;;7.45;;
75866;SDS011;64513;56.258;43.980;2023-01-24T17:50:13;22.22;;;8.08;;
75866;SDS011;64513;56.258;43.980;2023-01-24T17:52:37;22.15;;;8.30;;
75866;SDS011;64513;56.258;43.980;2023-01-24T17:55:01;21.73;;;7.78;;
75866;SDS011;64513;56.258;43.980;2023-01-24T17:57:26;21.42;;;7.85;;
75866;SDS011;64513;56.258;43.980;2023-01-24T17:59:51;22.80;;;8.20;;
75866;SDS011;64513;56.258;43.980;2023-01-24T18:02:15;20.85;;;7.78;;
75866;SDS011;64513;56.258;43.980;2023-01-24T18:04:39;20.68;;;7.55;;
75866;SDS011;64513;56.258;43.980;2023-01-24T18:07:04;20.62;;;8.00;;
75866;SDS011;64513;56.258;43.980;2023-01-24T18:09:28;23.10;;;8.13;;
75866;SDS011;64513;56.258;43.980;2023-01-24T18:11:52;25.50;;;8.90;;
75866;SDS011;64513;56.258;43.980;2023-01-24T18:14:16;25.02;;;8.63;;
75866;SDS011;64513;56.258;43.980;2023-01-24T18:16:40;25.57;;;8.35;;
75866;SDS011;64513;56.258;43.980;2023-01-24T18:19:04;25.52;;;7.95;;
75866;SDS011;64513;56.258;43.980;2023-01-24T18:21:29;22.93;;;8.03;;
75866;SDS011;64513;56.258;43.980;2023-01-24T18:23:54;20.90;;;8.10;;
75866;SDS011;64513;56.258;43.980;2023-01-24T18:26:20;21.25;;;8.75;;
75866;SDS011;64513;56.258;43.980;2023-01-24T18:28:44;24.45;;;8.75;;
75866;SDS011;64513;56.258;43.980;2023-01-24T18:31:09;22.70;;;8.05;;
75866;SDS011;64513;56.258;43.980;2023-01-24T18:33:34;23.42;;;8.40;;
75866;SDS011;64513;56.258;43.980;2023-01-24T18:35:59;23.10;;;7.80;;
75866;SDS011;64513;56.258;43.980;2023-01-24T18:38:25;26.62;;;7.95;;
75866;SDS011;64513;56.258;43.980;2023-01-24T18:40:49;25.17;;;8.55;;
75866;SDS011;64513;56.258;43.980;2023-01-24T18:43:13;22.95;;;7.97;;
75866;SDS011;64513;56.258;43.980;2023-01-24T18:45:38;26.30;;;8.95;;
75866;SDS011;64513;56.258;43.980;2023-01-24T18:48:03;22.35;;;8.25;;
75866;SDS011;64513;56.258;43.980;2023-01-24T18:50:27;23.92;;;9.00;;